Time,TemperatureF,DewpointF,PressureIn,WindDirection,WindDirectionDegrees,WindSpeedMPH,WindSpeedGustMPH,Humidity,HourlyPrecipIn,Conditions,Clouds,dailyrainin,SoftwareType,DateUTC
2013-01-31 00:03:00,30.6,19.5,24.51,North,0,9.2,9.2,63,0.00,CLR,,0.00,WeatherDisplay:10.37,2013-01-31 07:03:00,
2013-01-31 00:08:00,30.9,19.8,24.51,North,0,9.2,9.2,63,0.00,CLR,,0.00,WeatherDisplay:10.37,2013-01-31 07:08:00,
2013-01-31 00:14:00,30.7,20.0,24.50,North,0,9.2,9.2,64,0.00,CLR,,0.00,WeatherDisplay:10.37,2013-01-31 07:14:00,
2013-01-31 00:19:00,30.6,19.8,24.50,North,0,8.1,8.1,64,0.00,CLR,,0.00,WeatherDisplay:10.37,2013-01-31 07:19:00,
2013-01-31 00:24:00,30.4,19.6,24.50,North,0,5.8,5.8,64,0.00,CLR,,0.00,WeatherDisplay:10.37,2013-01-31 07:24:00,
2013-01-31 00:29:00,29.7,19.3,24.50,North,0,8.1,8.1,65,0.00,CLR,,0.00,WeatherDisplay:10.37,2013-01-31 07:29:00,
2013-01-31 00:35:00,29.1,19.2,24.50,NW,315,6.9,6.9,66,0.00,CLR,,0.00,WeatherDisplay:10.37,2013-01-31 07:35:00,
2013-01-31 00:40:00,28.9,19.3,24.50,North,0,8.1,8.1,67,0.00,CLR,,0.00,WeatherDisplay:10.37,2013-01-31 07:40:00,
2013-01-31 00:45:00,29.1,19.5,24.50,North,0,8.1,8.1,67,0.00,CLR,,0.00,WeatherDisplay:10.37,2013-01-31 07:45:00,
2013-01-31 00:50:00,29.7,20.0,24.50,NW,315,3.5,3.5,67,0.00,CLR,,0.00,WeatherDisplay:10.37,2013-01-31 07:50:00,
2013-01-31 00:56:00,29.5,19.9,24.50,NW,315,3.5,3.5,67,0.00,CLR,,0.00,WeatherDisplay:10.37,2013-01-31 07:56:00,
2013-01-31 01:01:00,29.3,19.7,24.50,North,0,3.5,3.5,67,0.00,CLR,,0.00,WeatherDisplay:10.37,2013-01-31 08:01:00,
2013-01-31 01:06:00,29.3,19.7,24.50,North,0,3.5,3.5,67,0.00,CLR,,0.00,WeatherDisplay:10.37,2013-01-31 08:06:00,
2013-01-31 01:11:00,29.1,19.5,24.50,NW,315,1.1,1.1,67,0.00,CLR,,0.00,WeatherDisplay:10.37,2013-01-31 08:11:00,
2013-01-31 01:16:00,29.1,19.9,24.50,NW,315,1.1,1.1,68,0.00,CLR,,0.00,WeatherDisplay:10.37,2013-01-31 08:16:00,
2013-01-31 01:22:00,28.9,19.7,24.50,NW,315,1.1,1.1,68,0.00,CLR,,0.00,WeatherDisplay:10.37,2013-01-31 08:22:00,
2013-01-31 01:27:00,28.9,19.7,24.50,NW,315,2.3,2.3,68,0.00,CLR,,0.00,WeatherDisplay:10.37,2013-01-31 08:27:00,
2013-01-31 01:32:00,29.1,19.9,24.50,North,0,3.5,3.5,68,0.00,CLR,,0.00,WeatherDisplay:10.37,2013-01-31 08:32:00,
2013-01-31 01:37:00,29.3,20.0,24.50,NW,315,2.3,2.3,68,0.00,CLR,,0.00,WeatherDisplay:10.37,2013-01-31 08:37:00,
2013-01-31 01:42:00,28.9,19.7,24.50,NW,315,2.3,2.3,68,0.00,CLR,,0.00,WeatherDisplay:10.37,2013-01-31 08:42:00,
2013-01-31 01:47:00,28.8,19.5,24.50,West,270,2.3,2.3,68,0.00,CLR,,0.00,WeatherDisplay:10.37,2013-01-31 08:47:00,
2013-01-31 01:52:00,28.9,20.0,24.50,West,270,1.1,0.0,69,0.00,CLR,,0.00,WeatherDisplay:10.37,2013-01-31 08:52:00,
2013-01-31 01:58:00,29.3,20.4,24.50,West,270,3.1,3.1,69,0.00,CLR,,0.00,WeatherDisplay:10.37,2013-01-31 08:58:00,
2013-01-31 02:03:00,29.1,19.9,24.50,SW,225,2.3,2.3,68,0.00,CLR,,0.00,WeatherDisplay:10.37,2013-01-31 09:03:00,
2013-01-31 02:08:00,29.5,20.6,24.50,SW,225,3.5,3.5,69,0.00,CLR,,0.00,WeatherDisplay:10.37,2013-01-31 09:08:00,
2013-01-31 02:13:00,29.3,20.0,24.50,West,270,5.8,5.8,68,0.00,CLR,,0.00,WeatherDisplay:10.37,2013-01-31 09:13:00,
2013-01-31 02:18:00,28.6,19.4,24.50,West,270,3.5,3.5,68,0.00,CLR,,0.00,WeatherDisplay:10.37,2013-01-31 09:18:00,
2013-01-31 02:24:00,28.4,19.2,24.50,SW,225,4.6,4.6,68,0.00,CLR,,0.00,WeatherDisplay:10.37,2013-01-31 09:24:00,
2013-01-31 02:29:00,27.9,17.3,24.50,SW,225,2.3,2.3,64,0.00,CLR,,0.00,WeatherDisplay:10.37,2013-01-31 09:29:00,
2013-01-31 02:34:00,27.3,17.1,24.50,NW,315,3.5,4.5,65,0.00,CLR,,0.00,WeatherDisplay:10.37,2013-01-31 09:34:00,
2013-01-31 02:39:00,27.0,17.1,24.50,SE,135,5.8,5.8,66,0.00,CLR,,0.00,WeatherDisplay:10.37,2013-01-31 09:39:00,
2013-01-31 02:45:00,28.2,18.7,24.50,West,270,3.5,3.5,67,0.00,CLR,,0.00,WeatherDisplay:10.37,2013-01-31 09:45:00,
2013-01-31 02:50:00,27.9,18.0,24.51,West,270,5.8,5.8,66,0.00,CLR,,0.00,WeatherDisplay:10.37,2013-01-31 09:50:00,
2013-01-31 02:55:00,27.9,18.3,24.50,NW,315,5.8,5.8,67,0.00,CLR,,0.00,WeatherDisplay:10.37,2013-01-31 09:55:00,
2013-01-31 03:00:00,28.0,18.5,24.50,NW,315,2.3,2.3,67,0.00,CLR,,0.00,WeatherDisplay:10.37,2013-01-31 10:00:00,
2013-01-31 03:06:00,28.0,18.5,24.50,NW,315,2.3,2.3,67,0.00,CLR,,0.00,WeatherDisplay:10.37,2013-01-31 10:06:00,
2013-01-31 03:11:00,27.7,18.1,24.51,SW,225,5.8,5.8,67,0.00,CLR,,0.00,WeatherDisplay:10.37,2013-01-31 10:11:00,
2013-01-31 03:16:00,27.3,17.8,24.51,SW,225,5.8,5.8,67,0.00,CLR,,0.00,WeatherDisplay:10.37,2013-01-31 10:16:00,
2013-01-31 03:22:00,27.3,18.1,24.51,West,270,2.3,2.3,68,0.00,CLR,,0.00,WeatherDisplay:10.37,2013-01-31 10:22:00,
2013-01-31 03:27:00,27.0,17.8,24.51,SW,225,3.5,3.5,68,0.00,CLR,,0.00,WeatherDisplay:10.37,2013-01-31 10:27:00,
2013-01-31 03:32:00,26.8,18.0,24.51,SW,225,3.5,3.5,69,0.00,CLR,,0.00,WeatherDisplay:10.37,2013-01-31 10:32:00,
2013-01-31 03:37:00,26.2,17.8,24.51,SW,225,4.6,4.6,70,0.00,CLR,,0.00,WeatherDisplay:10.37,2013-01-31 10:37:00,
2013-01-31 03:43:00,26.4,18.3,24.51,West,270,3.5,3.5,71,0.00,CLR,,0.00,WeatherDisplay:10.37,2013-01-31 10:43:00,
2013-01-31 03:48:00,26.8,18.6,24.52,West,270,3.5,3.5,71,0.00,CLR,,0.00,WeatherDisplay:10.37,2013-01-31 10:48:00,
2013-01-31 20:40:00,26.8,18.6,24.52,West,270,3.5,3.5,71,0.00,CLR,,0.00,WeatherDisplay:10.37,2013-02-01 03:40:00,
2013-01-31 20:46:00,37.2,21.6,24.55,NW,315,6.9,6.9,53,0.00,CLR,,0.00,WeatherDisplay:10.37,2013-02-01 03:46:00,
2013-01-31 20:51:00,36.9,21.7,24.55,North,0,8.1,8.1,54,0.00,CLR,,0.00,WeatherDisplay:10.37,2013-02-01 03:51:00,
2013-01-31 20:56:00,36.7,21.6,24.55,North,0,9.2,9.2,54,0.00,CLR,,0.00,WeatherDisplay:10.37,2013-02-01 03:56:00,
2013-01-31 21:01:00,36.7,21.6,24.55,North,0,8.1,8.1,54,0.00,CLR,,0.00,WeatherDisplay:10.37,2013-02-01 04:01:00,
2013-01-31 21:07:00,36.7,21.6,24.55,North,0,8.1,8.1,54,0.00,CLR,,0.00,WeatherDisplay:10.37,2013-02-01 04:07:00,
2013-01-31 21:12:00,36.9,21.3,24.55,North,0,10.4,10.4,53,0.00,CLR,,0.00,WeatherDisplay:10.37,2013-02-01 04:12:00,
2013-01-31 21:17:00,36.7,21.1,24.55,North,0,9.2,9.2,53,0.00,CLR,,0.00,WeatherDisplay:10.37,2013-02-01 04:17:00,
2013-01-31 21:22:00,36.5,21.0,24.55,North,0,10.4,10.4,53,0.00,CLR,,0.00,WeatherDisplay:10.37,2013-02-01 04:22:00,
2013-01-31 21:28:00,36.1,21.1,24.55,North,0,8.1,8.1,54,0.00,CLR,,0.00,WeatherDisplay:10.37,2013-02-01 04:28:00,
2013-01-31 21:33:00,35.2,21.1,24.55,NNE,16,6.9,6.9,56,0.00,CLR,,0.00,WeatherDisplay:10.37,2013-02-01 04:33:00,
2013-01-31 21:38:00,34.9,20.8,24.56,NW,315,5.8,5.8,56,0.00,CLR,,0.00,WeatherDisplay:10.37,2013-02-01 04:38:00,
2013-01-31 21:43:00,34.9,20.8,24.56,North,0,4.6,4.6,56,0.00,CLR,,0.00,WeatherDisplay:10.37,2013-02-01 04:43:00,
2013-01-31 21:49:00,34.5,20.4,24.56,NW,315,5.8,5.8,56,0.00,CLR,,0.00,WeatherDisplay:10.37,2013-02-01 04:49:00,
2013-01-31 21:54:00,34.0,19.9,24.56,NW,315,5.8,5.8,56,0.00,CLR,,0.00,WeatherDisplay:10.37,2013-02-01 04:54:00,
2013-01-31 21:59:00,33.8,20.2,24.56,NW,315,4.6,4.6,57,0.00,CLR,,0.00,WeatherDisplay:10.37,2013-02-01 04:59:00,
2013-01-31 22:00:00,33.8,20.2,24.56,NW,315,5.8,5.8,57,0.00,CLR,,0.00,WeatherDisplay:10.37,2013-02-01 05:00:00,
2013-01-31 22:01:00,34.0,20.3,24.56,NW,315,5.8,5.8,57,0.00,CLR,,0.00,WeatherDisplay:10.37,2013-02-01 05:01:00,
2013-01-31 22:04:00,34.0,20.3,24.56,NNE,22,5.8,5.8,57,0.00,CLR,,0.00,WeatherDisplay:10.37,2013-02-01 05:04:00,
2013-01-31 22:09:00,34.2,20.5,24.56,NW,315,6.0,6.0,57,0.00,CLR,,0.00,WeatherDisplay:10.37,2013-02-01 05:09:00,
2013-01-31 22:14:00,34.3,20.3,24.56,NW,315,5.8,5.8,56,0.00,CLR,,0.00,WeatherDisplay:10.37,2013-02-01 05:14:00,
2013-01-31 22:19:00,34.3,20.3,24.56,NW,315,5.8,5.8,56,0.00,CLR,,0.00,WeatherDisplay:10.37,2013-02-01 05:19:00,
2013-01-31 22:24:00,34.5,20.4,24.57,North,0,5.8,5.8,56,0.00,CLR,,0.00,WeatherDisplay:10.37,2013-02-01 05:24:00,
2013-01-31 22:29:00,34.7,20.6,24.57,NW,315,5.8,5.8,56,0.00,CLR,,0.00,WeatherDisplay:10.37,2013-02-01 05:29:00,
2013-01-31 22:37:00,34.7,20.6,24.65,North,0,4.6,0.0,56,0.00,CLR,,0.00,WeatherDisplay:10.37,2013-02-01 05:37:00,
2013-01-31 22:42:00,34.3,20.3,24.57,West,270,3.5,3.5,56,0.00,CLR,,0.00,WeatherDisplay:10.37,2013-02-01 05:42:00,
2013-01-31 22:47:00,34.5,20.4,24.57,NW,315,5.8,5.8,56,0.00,CLR,,0.00,WeatherDisplay:10.37,2013-02-01 05:47:00,
2013-01-31 22:53:00,34.5,20.4,24.57,NW,315,5.8,5.8,56,0.00,CLR,,0.00,WeatherDisplay:10.37,2013-02-01 05:53:00,
2013-01-31 22:58:00,34.3,20.3,24.57,NW,315,5.8,5.8,56,0.00,CLR,,0.00,WeatherDisplay:10.37,2013-02-01 05:58:00,
2013-01-31 23:03:00,34.2,20.1,24.57,WNW,292,8.1,8.1,56,0.00,CLR,,0.00,WeatherDisplay:10.37,2013-02-01 06:03:00,
2013-01-31 23:08:00,34.5,20.4,24.57,NW,315,8.1,8.1,56,0.00,CLR,,0.00,WeatherDisplay:10.37,2013-02-01 06:08:00,
2013-01-31 23:13:00,34.3,19.8,24.57,WNW,292,6.9,6.9,55,0.00,CLR,,0.00,WeatherDisplay:10.37,2013-02-01 06:13:00,
2013-01-31 23:18:00,34.5,20.4,24.57,North,0,10.4,10.4,56,0.00,CLR,,0.00,WeatherDisplay:10.37,2013-02-01 06:18:00,
2013-01-31 23:23:00,34.9,20.3,24.57,North,0,8.1,8.1,55,0.00,CLR,,0.00,WeatherDisplay:10.37,2013-02-01 06:23:00,
2013-01-31 23:29:00,34.9,20.3,24.57,North,0,6.9,6.9,55,0.00,CLR,,0.00,WeatherDisplay:10.37,2013-02-01 06:29:00,
2013-01-31 23:34:00,34.9,20.3,24.57,West,270,9.2,9.2,55,0.00,CLR,,0.00,WeatherDisplay:10.37,2013-02-01 06:34:00,
2013-01-31 23:39:00,35.2,20.2,24.57,West,270,10.4,10.4,54,0.00,CLR,,0.00,WeatherDisplay:10.37,2013-02-01 06:39:00,
2013-01-31 23:44:00,35.6,20.1,24.57,NW,315,11.5,11.5,53,0.00,CLR,,0.00,WeatherDisplay:10.37,2013-02-01 06:44:00,
2013-01-31 23:50:00,35.8,19.9,24.57,North,0,10.4,10.4,52,0.00,CLR,,0.00,WeatherDisplay:10.37,2013-02-01 06:50:00,
2013-01-31 23:55:00,35.4,20.0,24.57,NW,315,10.4,10.4,53,0.00,CLR,,0.00,WeatherDisplay:10.37,2013-02-01 06:55:00,